createdAt,value
2023-01-26T00:01:19.261Z,101607.56
2023-01-26T00:03:46.503Z,101603.16
2023-01-26T00:06:16.183Z,101608.13
2023-01-26T00:08:45.325Z,101598.19
2023-01-26T00:11:15.017Z,101590.72
2023-01-26T00:13:42.528Z,101595.97
2023-01-26T00:16:13.616Z,101594.34
2023-01-26T00:18:42.009Z,101599.91
2023-01-26T00:21:12.734Z,101592.16
2023-01-26T00:23:39.630Z,101586.59
2023-01-26T00:26:08.192Z,101584.13
2023-01-26T00:28:36.441Z,101590.22
2023-01-26T00:31:04.447Z,101589.38
2023-01-26T00:33:31.626Z,101582.47
2023-01-26T00:35:58.660Z,101583.88
2023-01-26T00:38:26.555Z,101588.28
2023-01-26T00:40:53.671Z,101594.94
2023-01-26T00:43:20.759Z,101573.66
2023-01-26T00:45:47.501Z,101568.44
2023-01-26T00:48:14.383Z,101572.81
2023-01-26T00:50:41.252Z,101567.84
2023-01-26T00:53:09.594Z,101576.72
2023-01-26T00:55:36.549Z,101567.03
2023-01-26T00:58:06.215Z,101561.00
2023-01-26T01:00:34.962Z,101567.34
2023-01-26T01:03:02.494Z,101554.63
2023-01-26T01:05:31.478Z,101553.53
2023-01-26T01:07:58.543Z,101542.47
2023-01-26T01:10:27.573Z,101541.41
2023-01-26T01:12:55.251Z,101530.94
2023-01-26T01:15:24.310Z,101527.59
2023-01-26T01:17:51.227Z,101522.09
2023-01-26T01:20:18.036Z,101530.91
2023-01-26T01:22:46.541Z,101528.72
2023-01-26T01:25:13.407Z,101525.38
2023-01-26T01:27:40.095Z,101518.78
2023-01-26T01:30:08.298Z,101519.06
2023-01-26T01:32:36.265Z,101515.19
2023-01-26T01:35:03.950Z,101516.28
2023-01-26T01:37:31.095Z,101521.53
2023-01-26T01:39:57.945Z,101511.88
2023-01-26T01:42:25.845Z,101514.94
2023-01-26T01:45:26.632Z,101509.44
2023-01-26T01:47:57.186Z,101509.44
2023-01-26T01:50:26.098Z,101505.00
2023-01-26T01:52:55.907Z,101510.53
2023-01-26T01:55:25.559Z,101502.25
2023-01-26T01:57:58.774Z,101500.03
2023-01-26T02:00:26.629Z,101496.16
2023-01-26T02:03:11.102Z,101489.00
2023-01-26T02:05:44.756Z,101489.56
2023-01-26T02:08:13.196Z,101490.66
2023-01-26T02:10:41.085Z,101488.69
2023-01-26T02:13:08.709Z,101485.41
2023-01-26T02:15:35.561Z,101478.53
2023-01-26T02:18:05.080Z,101482.38
2023-01-26T02:20:37.256Z,101479.91
2023-01-26T02:23:21.979Z,101486.22
2023-01-26T02:25:49.780Z,101489.53
2023-01-26T02:28:18.538Z,101479.63
2023-01-26T02:30:46.498Z,101480.72
2023-01-26T02:33:26.916Z,101478.78
2023-01-26T02:35:58.036Z,101476.88
2023-01-26T02:38:30.521Z,101474.13
2023-01-26T02:41:06.249Z,101474.63
2023-01-26T02:43:33.402Z,101479.06
2023-01-26T02:46:00.236Z,101465.28
2023-01-26T02:48:45.667Z,101469.13
2023-01-26T02:51:12.724Z,101459.75
2023-01-26T02:53:39.952Z,101461.94
2023-01-26T02:56:07.299Z,101462.50
2023-01-26T02:58:34.536Z,101461.97
2023-01-26T03:01:01.250Z,101462.25
2023-01-26T03:03:41.794Z,101457.56
2023-01-26T03:06:10.543Z,101458.13
2023-01-26T03:08:38.433Z,101454.25
2023-01-26T03:11:07.390Z,101457.00
2023-01-26T03:13:34.729Z,101467.47
2023-01-26T03:16:06.815Z,101464.19
2023-01-26T03:18:53.873Z,101462.81
2023-01-26T03:21:42.299Z,101457.00
2023-01-26T03:24:31.662Z,101453.97
2023-01-26T03:27:19.685Z,101450.94
2023-01-26T03:29:46.311Z,101451.50
2023-01-26T03:32:13.101Z,101443.22
2023-01-26T03:34:42.213Z,101444.84
2023-01-26T03:37:09.060Z,101449.25
2023-01-26T03:40:06.175Z,101447.59
2023-01-26T03:42:53.863Z,101446.22
2023-01-26T03:45:40.040Z,101445.97
2023-01-26T03:48:28.165Z,101451.50
2023-01-26T03:51:13.559Z,101435.50
2023-01-26T03:53:58.932Z,101449.81
2023-01-26T03:56:25.773Z,101448.19
2023-01-26T03:58:58.100Z,101439.91
2023-01-26T04:01:28.229Z,101441.81
2023-01-26T04:04:20.162Z,101447.63
2023-01-26T04:07:07.138Z,101448.72
2023-01-26T04:09:37.063Z,101444.59
2023-01-26T04:12:04.698Z,101441.00
2023-01-26T04:14:52.519Z,101440.44
2023-01-26T04:17:42.005Z,101440.44
2023-01-26T04:20:27.925Z,101447.88
2023-01-26T04:22:54.777Z,101441.53
2023-01-26T04:25:22.862Z,101442.91
2023-01-26T04:27:50.191Z,101438.78
2023-01-26T04:30:17.775Z,101445.41
2023-01-26T04:32:46.297Z,101459.75
2023-01-26T04:35:13.722Z,101460.00
2023-01-26T04:37:42.164Z,101449.28
2023-01-26T04:40:10.028Z,101442.66
2023-01-26T04:42:37.692Z,101437.16
2023-01-26T04:45:05.839Z,101440.97
2023-01-26T04:47:32.870Z,101432.19
2023-01-26T04:49:59.544Z,101433.25
2023-01-26T04:52:26.517Z,101437.66
2023-01-26T04:54:53.290Z,101425.84
2023-01-26T04:57:21.244Z,101426.66
2023-01-26T04:59:50.342Z,101423.88
2023-01-26T05:02:19.164Z,101425.00
2023-01-26T05:04:46.069Z,101422.25
2023-01-26T05:07:14.455Z,101419.47
2023-01-26T05:09:41.276Z,101412.31
2023-01-26T05:12:42.720Z,101421.97
2023-01-26T05:15:29.039Z,101419.44
2023-01-26T05:18:10.963Z,101417.22
2023-01-26T05:20:45.889Z,101421.41
2023-01-26T05:23:17.366Z,101422.50
2023-01-26T05:26:04.959Z,101430.47
2023-01-26T05:28:41.059Z,101415.00
2023-01-26T05:31:08.413Z,101413.38
2023-01-26T05:33:35.567Z,101415.34
2023-01-26T05:36:06.214Z,101414.22
2023-01-26T05:38:34.092Z,101418.59
2023-01-26T05:41:00.925Z,101418.06
2023-01-26T05:43:30.761Z,101426.06
2023-01-26T05:46:21.990Z,101428.78
2023-01-26T05:48:49.600Z,101430.47
2023-01-26T05:51:16.340Z,101431.06
2023-01-26T05:53:43.266Z,101428.53
2023-01-26T05:56:10.153Z,101421.91
2023-01-26T05:58:42.434Z,101420.53
2023-01-26T06:01:09.397Z,101419.97
2023-01-26T06:03:49.253Z,101422.72
2023-01-26T06:06:16.254Z,101424.41
2023-01-26T06:08:50.481Z,101423.28
2023-01-26T06:11:35.814Z,101424.38
2023-01-26T06:14:14.296Z,101430.19
2023-01-26T06:16:41.347Z,101434.59
2023-01-26T06:19:10.552Z,101432.09
2023-01-26T06:21:38.173Z,101441.19
2023-01-26T06:24:05.245Z,101433.19
2023-01-26T06:26:32.126Z,101435.31
2023-01-26T06:28:59.219Z,101445.81
2023-01-26T06:31:29.845Z,101446.13
2023-01-26T06:33:58.910Z,101445.03
2023-01-26T06:36:28.278Z,101456.88
2023-01-26T06:38:56.935Z,101454.66
2023-01-26T06:41:24.395Z,101445.81
2023-01-26T06:43:51.483Z,101459.09
2023-01-26T06:46:19.591Z,101456.03
2023-01-26T06:48:47.831Z,101457.69
2023-01-26T06:51:18.336Z,101461.81
2023-01-26T06:53:58.598Z,101452.97
2023-01-26T06:56:32.845Z,101455.19
2023-01-26T06:59:25.814Z,101462.34
2023-01-26T07:02:20.454Z,101458.19
2023-01-26T07:04:48.248Z,101454.91
2023-01-26T07:07:15.098Z,101457.38
2023-01-26T07:09:41.875Z,101458.22
2023-01-26T07:12:09.654Z,101458.75
2023-01-26T07:14:36.555Z,101457.94
2023-01-26T07:17:03.473Z,101460.66
2023-01-26T07:19:31.461Z,101458.75
2023-01-26T07:21:58.224Z,101465.63
2023-01-26T07:24:25.542Z,101458.97
2023-01-26T07:26:52.335Z,101457.28
2023-01-26T07:29:19.388Z,101460.09
2023-01-26T07:31:46.256Z,101456.22
2023-01-26T07:34:13.646Z,101451.84
2023-01-26T07:36:40.986Z,101456.22
2023-01-26T07:39:08.641Z,101452.63
2023-01-26T07:41:36.117Z,101458.44
2023-01-26T07:44:13.465Z,101458.13
2023-01-26T07:46:41.412Z,101470.22
2023-01-26T07:49:08.183Z,101459.78
2023-01-26T07:51:34.797Z,101462.25
2023-01-26T07:54:02.622Z,101468.91
2023-01-26T07:56:29.378Z,101472.72
2023-01-26T07:58:56.098Z,101476.31
2023-01-26T08:01:23.212Z,101476.03
2023-01-26T08:03:51.992Z,101476.63
2023-01-26T08:06:19.171Z,101480.75
2023-01-26T08:08:51.069Z,101479.59
2023-01-26T08:11:23.593Z,101483.75
2023-01-26T08:13:50.300Z,101487.03
2023-01-26T08:16:17.654Z,101490.59
2023-01-26T08:18:46.408Z,101486.63
2023-01-26T08:21:15.274Z,101494.13
2023-01-26T08:23:42.008Z,101489.75
2023-01-26T08:26:12.284Z,101499.72
2023-01-26T08:28:39.272Z,101498.38
2023-01-26T08:31:08.943Z,101498.13
2023-01-26T08:33:35.772Z,101494.84
2023-01-26T08:36:07.206Z,101502.03
2023-01-26T08:38:34.582Z,101494.47
2023-01-26T08:41:02.218Z,101493.13
2023-01-26T08:43:29.307Z,101506.06
2023-01-26T08:45:56.440Z,101503.25
2023-01-26T08:48:23.127Z,101499.63
2023-01-26T08:50:55.194Z,101507.56
2023-01-26T08:53:23.079Z,101511.94
2023-01-26T08:55:52.510Z,101504.19
2023-01-26T08:58:20.531Z,101508.59
2023-01-26T09:00:47.722Z,101517.63
2023-01-26T09:03:14.950Z,101516.81
2023-01-26T09:05:41.844Z,101518.13
2023-01-26T09:08:09.653Z,101521.06
2023-01-26T09:10:39.414Z,101527.66
2023-01-26T09:13:06.408Z,101528.75
2023-01-26T09:15:33.176Z,101527.00
2023-01-26T09:18:01.130Z,101523.13
2023-01-26T09:20:28.730Z,101532.44
2023-01-26T09:22:55.397Z,101541.00
2023-01-26T09:25:22.064Z,101538.75
2023-01-26T09:27:48.898Z,101538.44
2023-01-26T09:30:16.202Z,101528.44
2023-01-26T09:32:43.046Z,101529.50
2023-01-26T09:35:14.290Z,101526.94
2023-01-26T09:37:43.480Z,101533.59
2023-01-26T09:40:19.639Z,101537.19
2023-01-26T09:43:05.398Z,101536.00
2023-01-26T09:46:10.680Z,101538.19
2023-01-26T09:48:43.149Z,101538.69
2023-01-26T09:51:32.188Z,101540.34
2023-01-26T09:54:22.333Z,101543.06
2023-01-26T09:56:48.997Z,101537.47
2023-01-26T09:59:44.289Z,101546.03
2023-01-26T10:02:41.992Z,101543.50
2023-01-26T10:05:17.810Z,101549.63
2023-01-26T10:07:47.975Z,101541.78
2023-01-26T10:10:28.312Z,101537.91
2023-01-26T10:12:56.351Z,101531.13
2023-01-26T10:15:38.843Z,101534.16
2023-01-26T10:18:19.836Z,101531.13
2023-01-26T10:20:51.449Z,101536.59
2023-01-26T10:23:23.439Z,101539.91
2023-01-26T10:25:52.010Z,101535.72
2023-01-26T10:28:26.138Z,101535.06
2023-01-26T10:30:53.681Z,101525.34
2023-01-26T10:33:30.830Z,101530.88
2023-01-26T10:35:57.660Z,101520.31
2023-01-26T10:38:33.633Z,101520.31
2023-01-26T10:41:05.248Z,101520.31
2023-01-26T10:43:41.008Z,101523.56
2023-01-26T10:46:23.681Z,101509.31
2023-01-26T10:49:00.762Z,101506.50
2023-01-26T10:51:33.332Z,101511.22
2023-01-26T10:54:20.228Z,101513.91
2023-01-26T10:56:56.725Z,101505.84
2023-01-26T10:59:40.664Z,101507.19
2023-01-26T11:02:19.140Z,101504.09
2023-01-26T11:05:08.745Z,101502.09
2023-01-26T11:07:40.832Z,101511.53
2023-01-26T11:10:26.828Z,101511.97
2023-01-26T11:13:13.077Z,101517.16
2023-01-26T11:15:42.060Z,101519.66
2023-01-26T11:18:37.505Z,101516.84
2023-01-26T11:21:11.130Z,101516.25
2023-01-26T11:23:48.436Z,101514.22
2023-01-26T11:26:32.982Z,101517.22
2023-01-26T11:29:30.982Z,101511.94
2023-01-26T11:32:03.676Z,101507.69
2023-01-26T11:34:42.211Z,101509.03
2023-01-26T11:37:26.689Z,101493.94
2023-01-26T11:40:25.795Z,101502.56
2023-01-26T11:43:13.496Z,101497.47
2023-01-26T11:46:02.505Z,101487.78
2023-01-26T11:49:00.338Z,101486.88
2023-01-26T11:51:29.634Z,101487.28
2023-01-26T11:54:01.921Z,101488.44
2023-01-26T11:56:34.674Z,101485.16
2023-01-26T11:59:16.507Z,101481.97
2023-01-26T12:02:00.013Z,101486.63
2023-01-26T12:04:28.483Z,101486.09
2023-01-26T12:07:02.382Z,101490.72
2023-01-26T12:09:38.636Z,101483.31
2023-01-26T12:12:12.580Z,101474.28
2023-01-26T12:15:05.802Z,101472.03
2023-01-26T12:17:51.284Z,101472.72
2023-01-26T12:20:39.657Z,101465.88
2023-01-26T12:23:09.257Z,101459.03
2023-01-26T12:25:37.588Z,101467.88
2023-01-26T12:28:07.497Z,101459.56
2023-01-26T12:30:42.099Z,101460.19
2023-01-26T12:33:11.094Z,101458.22
2023-01-26T14:09:52.642Z,101437.13
2023-01-26T14:12:25.140Z,101431.53
2023-01-26T14:15:01.898Z,101430.94
2023-01-26T14:17:36.906Z,101437.13
2023-01-26T14:20:32.594Z,101435.78
2023-01-26T14:23:21.549Z,101435.88
2023-01-26T14:26:54.212Z,101438.84
2023-01-26T14:29:24.473Z,101433.91
2023-01-26T14:31:53.630Z,101442.97
2023-01-26T14:34:23.423Z,101430.56
2023-01-26T14:37:12.855Z,101432.81
2023-01-26T14:39:40.214Z,101438.66
2023-01-26T14:42:07.295Z,101440.06
2023-01-26T14:44:35.104Z,101440.06
2023-01-26T14:47:08.141Z,101436.75
2023-01-26T14:49:57.656Z,101437.28
2023-01-26T14:52:27.597Z,101445.88
2023-01-26T14:54:58.196Z,101450.03
2023-01-26T14:57:27.837Z,101440.94
2023-01-26T14:59:58.078Z,101445.06
2023-01-26T15:02:27.796Z,101453.91
2023-01-26T15:04:59.500Z,101450.56
2023-01-26T15:07:41.183Z,101454.91
2023-01-26T15:10:31.034Z,101452.38
2023-01-26T15:13:08.495Z,101450.94
2023-01-26T15:15:41.215Z,101456.13
2023-01-26T15:18:13.832Z,101456.88
2023-01-26T15:21:12.450Z,101461.00
2023-01-26T15:23:45.709Z,101464.25
2023-01-26T15:26:15.398Z,101463.91
2023-01-26T15:28:42.465Z,101463.50
2023-01-26T15:31:21.282Z,101457.81
2023-01-26T15:33:53.649Z,101457.72
2023-01-26T15:36:27.507Z,101466.00
2023-01-26T15:39:12.892Z,101455.25
2023-01-26T15:41:44.896Z,101452.47
2023-01-26T15:44:21.541Z,101451.34
2023-01-26T15:46:48.426Z,101448.50
2023-01-26T15:49:20.134Z,101458.44
2023-01-26T15:52:05.576Z,101456.75
2023-01-26T15:54:32.285Z,101454.50
2023-01-26T15:56:59.780Z,101454.50
2023-01-26T15:59:26.778Z,101458.41
2023-01-26T16:01:53.755Z,101455.59
2023-01-26T16:04:20.650Z,101454.47
2023-01-26T16:06:47.648Z,101456.09
2023-01-26T16:09:14.713Z,101448.38
2023-01-26T16:11:48.974Z,101457.84
2023-01-26T16:14:16.592Z,101460.03
2023-01-26T16:16:43.758Z,101459.47
2023-01-26T16:19:10.801Z,101454.75
2023-01-26T16:21:41.032Z,101448.88
2023-01-26T16:24:10.563Z,101451.66
2023-01-26T16:26:37.463Z,101452.81
2023-01-26T16:29:04.341Z,101453.94
2023-01-26T16:31:33.670Z,101462.22
2023-01-26T16:34:01.291Z,101462.41
2023-01-26T16:36:29.601Z,101448.94
2023-01-26T16:39:15.561Z,101452.81
2023-01-26T16:41:42.324Z,101457.25
2023-01-26T16:44:14.571Z,101454.47
2023-01-26T16:46:42.781Z,101455.59
2023-01-26T16:49:14.379Z,101451.72
2023-01-26T16:51:42.628Z,101451.72
2023-01-26T16:54:10.443Z,101449.47
2023-01-26T16:56:37.459Z,101451.72
2023-01-26T16:59:06.034Z,101453.94
2023-01-26T17:01:37.596Z,101464.41
2023-01-26T17:04:05.416Z,101463.00
2023-01-26T17:06:32.897Z,101463.66
2023-01-26T17:08:59.682Z,101462.03
2023-01-26T17:11:28.761Z,101464.47
2023-01-26T17:13:56.721Z,101468.66
2023-01-26T17:16:29.411Z,101464.63
2023-01-26T17:18:56.487Z,101462.31
2023-01-26T17:21:23.553Z,101456.44
2023-01-26T17:23:51.940Z,101456.28
2023-01-26T17:26:20.078Z,101460.81
2023-01-26T17:28:51.965Z,101469.09
2023-01-26T17:31:20.974Z,101469.50
2023-01-26T17:33:50.064Z,101464.41
2023-01-26T17:36:18.535Z,101471.53
2023-01-26T17:38:45.776Z,101468.03
2023-01-26T17:41:12.526Z,101468.03
2023-01-26T17:43:39.254Z,101471.22
2023-01-26T17:46:13.022Z,101480.06
2023-01-26T17:48:40.849Z,101485.91
2023-01-26T17:51:09.349Z,101489.03
2023-01-26T17:53:40.105Z,101475.91
2023-01-26T17:56:09.422Z,101470.06
2023-01-26T17:58:36.880Z,101469.53
2023-01-26T18:01:06.160Z,101465.41
2023-01-26T18:03:33.733Z,101467.97
2023-01-26T18:06:01.374Z,101473.00
2023-01-26T18:08:28.188Z,101465.25
2023-01-26T18:11:02.895Z,101462.19
2023-01-26T18:13:31.990Z,101473.91
2023-01-26T18:15:59.627Z,101463.09
2023-01-26T18:18:28.673Z,101463.69
2023-01-26T18:20:56.079Z,101468.19
2023-01-26T18:23:24.708Z,101461.50
2023-01-26T18:25:54.651Z,101460.97
2023-01-26T18:28:21.376Z,101459.31
2023-01-26T18:30:48.685Z,101459.88
2023-01-26T18:33:18.069Z,101464.28
2023-01-26T18:35:45.183Z,101460.97
2023-01-26T18:38:12.109Z,101450.41
2023-01-26T18:40:40.167Z,101457.69
2023-01-26T18:43:07.187Z,101457.69
2023-01-26T18:45:34.013Z,101457.09
2023-01-26T18:48:03.959Z,101458.44
2023-01-26T18:50:31.122Z,101451.56
2023-01-26T18:52:59.741Z,101451.56
2023-01-26T18:55:26.648Z,101446.00
2023-01-26T18:57:55.323Z,101454.84
2023-01-26T19:00:22.451Z,101445.38
2023-01-26T19:02:49.297Z,101440.91
2023-01-26T19:05:16.285Z,101443.16
2023-01-26T19:07:44.025Z,101436.19
2023-01-26T19:10:10.944Z,101439.03
2023-01-26T19:12:37.739Z,101435.34
2023-01-26T19:15:05.245Z,101432.91
2023-01-26T19:17:32.378Z,101441.41
2023-01-26T19:19:59.207Z,101438.13
2023-01-26T19:22:26.043Z,101439.19
2023-01-26T19:24:53.021Z,101440.31
2023-01-26T19:27:20.075Z,101438.38
2023-01-26T19:29:46.928Z,101434.16
2023-01-26T19:32:13.690Z,101435.00
2023-01-26T19:34:40.614Z,101438.06
2023-01-26T19:37:07.359Z,101441.06
2023-01-26T19:39:36.371Z,101446.84
2023-01-26T19:42:03.092Z,101437.09
2023-01-26T19:44:48.542Z,101440.22
2023-01-26T19:47:15.405Z,101451.78
2023-01-26T19:49:42.285Z,101446.31
2023-01-26T19:52:09.206Z,101443.22
2023-01-26T19:54:36.057Z,101448.09
2023-01-26T19:57:03.124Z,101453.25
2023-01-26T19:59:29.835Z,101447.13
2023-01-26T20:01:56.617Z,101435.22
2023-01-26T20:04:23.384Z,101436.34
2023-01-26T20:06:50.166Z,101437.44
2023-01-26T20:09:19.723Z,101445.78
2023-01-26T20:11:48.591Z,101441.38
2023-01-26T20:14:15.508Z,101434.75
2023-01-26T20:16:42.605Z,101440.00
2023-01-26T20:19:11.564Z,101430.88
2023-01-26T20:21:38.918Z,101436.63
2023-01-26T20:24:06.969Z,101431.91
2023-01-26T20:26:34.825Z,101432.50
2023-01-26T20:29:01.885Z,101440.31
2023-01-26T20:31:28.705Z,101440.31
2023-01-26T20:33:56.127Z,101443.00
2023-01-26T20:36:28.771Z,101433.34
2023-01-26T20:38:55.951Z,101436.94
2023-01-26T20:41:25.900Z,101435.00
2023-01-26T20:44:00.858Z,101426.75
2023-01-26T20:46:39.977Z,101424.19
2023-01-26T20:49:10.262Z,101429.81
2023-01-26T20:51:42.522Z,101438.06
2023-01-26T20:54:13.577Z,101426.97
2023-01-26T20:56:40.942Z,101429.22
2023-01-26T20:59:07.876Z,101416.47
2023-01-26T21:01:36.483Z,101426.13
2023-01-26T21:04:06.732Z,101420.59
2023-01-26T21:06:34.509Z,101420.00
2023-01-26T21:09:01.923Z,101421.66
2023-01-26T21:11:30.748Z,101424.94
2023-01-26T21:14:00.641Z,101419.78
2023-01-26T21:16:28.820Z,101407.19
2023-01-26T21:18:55.872Z,101416.03
2023-01-26T21:21:23.281Z,101412.09
2023-01-26T21:23:50.953Z,101417.06
2023-01-26T21:26:22.321Z,101419.78
2023-01-26T21:28:53.782Z,101411.16
2023-01-26T21:31:22.700Z,101409.13
2023-01-26T21:33:50.476Z,101409.50
2023-01-26T21:36:29.139Z,101404.63
2023-01-26T21:38:57.491Z,101410.09
2023-01-26T21:41:48.675Z,101404.22
2023-01-26T21:44:53.526Z,101399.50
2023-01-26T21:47:20.333Z,101404.44
2023-01-26T21:49:47.813Z,101398.88
2023-01-26T21:52:33.382Z,101399.81
2023-01-26T21:55:00.207Z,101401.38
2023-01-26T21:57:45.697Z,101403.84
2023-01-26T22:00:32.494Z,101402.81
2023-01-26T22:03:00.748Z,101400.03
2023-01-26T22:05:27.579Z,101396.56
2023-01-26T22:07:54.247Z,101397.06
2023-01-26T22:10:21.052Z,101395.72
2023-01-26T22:12:47.763Z,101391.63
2023-01-26T22:15:15.171Z,101393.69
2023-01-26T22:17:41.987Z,101392.34
2023-01-26T22:20:09.992Z,101391.75
2023-01-26T22:22:36.931Z,101389.69
2023-01-26T22:25:03.865Z,101392.97
2023-01-26T22:27:30.576Z,101386.31
2023-01-26T22:29:57.467Z,101387.31
2023-01-26T22:32:24.490Z,101387.19
2023-01-26T22:34:51.694Z,101385.22
2023-01-26T22:37:18.802Z,101385.63
2023-01-26T22:39:45.681Z,101386.84
2023-01-26T22:42:12.408Z,101380.25
2023-01-26T22:44:39.291Z,101378.44
2023-01-26T22:47:06.149Z,101374.31
2023-01-26T22:49:33.051Z,101383.75
2023-01-26T22:51:59.922Z,101383.75
2023-01-26T22:54:27.784Z,101379.97
2023-01-26T22:56:54.717Z,101378.63
2023-01-26T22:59:21.641Z,101376.81
2023-01-26T23:01:48.561Z,101375.91
2023-01-26T23:04:15.556Z,101376.13
2023-01-26T23:06:42.373Z,101378.63
2023-01-26T23:09:09.285Z,101371.19
2023-01-26T23:11:36.084Z,101361.28
2023-01-26T23:14:03.073Z,101371.78
2023-01-26T23:16:30.329Z,101368.50
2023-01-26T23:18:58.444Z,101365.41
2023-01-26T23:21:26.741Z,101365.22
2023-01-26T23:23:53.730Z,101375.34
2023-01-26T23:26:21.015Z,101368.88
2023-01-26T23:28:48.445Z,101370.31
2023-01-26T23:31:16.820Z,101373.16
2023-01-26T23:33:44.311Z,101367.75
2023-01-26T23:36:13.712Z,101363.94
2023-01-26T23:38:40.804Z,101367.16
2023-01-26T23:41:12.060Z,101363.19
2023-01-26T23:43:39.163Z,101369.56
2023-01-26T23:46:07.980Z,101367.69
2023-01-26T23:48:34.997Z,101371.59
2023-01-26T23:51:04.838Z,101374.22
2023-01-26T23:53:32.464Z,101368.19
2023-01-26T23:56:14.861Z,101364.06
2023-01-26T23:58:41.600Z,101362.19
